createdAt,value
2019-03-13T00:00:45.605Z,0.70
2019-03-13T00:01:23.669Z,0.65
2019-03-13T00:01:59.911Z,0.62
2019-03-13T00:02:34.409Z,1.00
2019-03-13T00:03:09.295Z,1.15
2019-03-13T00:03:43.856Z,0.72
2019-03-13T00:04:18.423Z,0.98
2019-03-13T00:04:53.162Z,0.90
2019-03-13T00:05:27.916Z,0.88
2019-03-13T00:06:02.474Z,1.00
2019-03-13T00:06:36.990Z,1.00
2019-03-13T00:07:11.621Z,1.05
2019-03-13T00:07:46.130Z,1.50
2019-03-13T00:08:20.685Z,1.02
2019-03-13T00:08:55.172Z,0.90
2019-03-13T00:09:29.691Z,1.20
2019-03-13T00:10:06.717Z,1.47
2019-03-13T00:10:41.384Z,0.90
2019-03-13T00:11:15.871Z,0.93
2019-03-13T00:11:50.440Z,1.02
2019-03-13T00:12:25.187Z,1.20
2019-03-13T00:12:59.740Z,1.17
2019-03-13T00:13:34.248Z,1.20
2019-03-13T00:14:08.763Z,0.80
2019-03-13T00:14:43.410Z,1.20
2019-03-13T00:15:17.949Z,0.90
2019-03-13T00:15:52.506Z,1.37
2019-03-13T00:16:27.082Z,0.90
2019-03-13T00:17:01.642Z,1.37
2019-03-13T00:17:36.138Z,0.80
2019-03-13T00:18:10.632Z,1.00
2019-03-13T00:18:45.126Z,0.85
2019-03-13T00:19:19.985Z,1.10
2019-03-13T00:19:56.816Z,0.78
2019-03-13T00:20:31.383Z,0.90
2019-03-13T00:21:05.955Z,0.80
2019-03-13T00:21:40.452Z,1.17
2019-03-13T00:22:14.958Z,1.00
2019-03-13T00:22:49.566Z,1.05
2019-03-13T00:23:24.045Z,1.00
2019-03-13T00:23:58.617Z,0.90
2019-03-13T00:24:33.202Z,1.12
2019-03-13T00:25:08.454Z,0.80
2019-03-13T00:25:43.019Z,1.00
2019-03-13T00:26:17.589Z,0.80
2019-03-13T00:26:52.101Z,0.80
2019-03-13T00:27:26.583Z,0.70
2019-03-13T00:28:01.081Z,1.12
2019-03-13T00:28:35.646Z,0.90
2019-03-13T00:29:10.153Z,1.15
2019-03-13T00:29:44.785Z,1.10
2019-03-13T00:30:19.361Z,1.32
2019-03-13T00:30:54.000Z,0.93
2019-03-13T00:31:28.509Z,1.05
2019-03-13T00:32:03.849Z,0.98
2019-03-13T00:32:38.369Z,1.05
2019-03-13T00:33:12.932Z,1.40
2019-03-13T00:33:47.436Z,1.27
2019-03-13T00:34:21.947Z,0.80
2019-03-13T00:34:56.451Z,1.00
2019-03-13T00:35:30.954Z,1.20
2019-03-13T00:36:05.442Z,1.00
2019-03-13T00:36:39.958Z,0.80
2019-03-13T00:37:14.453Z,0.80
2019-03-13T00:37:48.954Z,0.93
2019-03-13T00:38:23.941Z,1.30
2019-03-13T00:38:58.465Z,0.98
2019-03-13T00:39:33.113Z,0.70
2019-03-13T00:40:10.245Z,1.00
2019-03-13T00:40:45.159Z,1.00
2019-03-13T00:41:20.044Z,0.98
2019-03-13T00:41:54.538Z,1.60
2019-03-13T00:42:29.052Z,1.20
2019-03-13T00:43:03.607Z,1.05
2019-03-13T00:43:38.106Z,1.00
2019-03-13T00:44:12.591Z,1.12
2019-03-13T00:44:47.084Z,1.07
2019-03-13T00:45:21.952Z,1.17
2019-03-13T00:45:56.528Z,0.95
2019-03-13T00:46:31.024Z,1.20
2019-03-13T00:47:05.605Z,0.70
2019-03-13T00:47:40.095Z,0.90
2019-03-13T00:48:14.669Z,1.10
2019-03-13T00:48:49.249Z,0.95
2019-03-13T00:49:23.770Z,1.40
2019-03-13T00:49:58.269Z,1.32
2019-03-13T00:50:33.378Z,1.00
2019-03-13T00:51:07.924Z,1.12
2019-03-13T00:51:42.424Z,1.47
2019-03-13T00:52:16.976Z,1.32
2019-03-13T00:52:51.480Z,1.17
2019-03-13T00:53:26.032Z,1.15
2019-03-13T00:54:00.539Z,1.02
2019-03-13T00:54:35.038Z,0.70
2019-03-13T00:55:09.621Z,1.10
2019-03-13T00:55:44.137Z,1.10
2019-03-13T00:56:18.668Z,1.05
2019-03-13T00:56:53.233Z,1.00
2019-03-13T00:57:27.724Z,1.70
2019-03-13T00:58:02.231Z,0.80
2019-03-13T00:58:36.728Z,1.02
2019-03-13T00:59:11.299Z,0.98
2019-03-13T00:59:45.862Z,1.00
2019-03-13T01:00:28.869Z,1.00
2019-03-13T01:01:05.083Z,1.12
2019-03-13T01:01:41.329Z,0.95
2019-03-13T01:02:32.585Z,1.30
2019-03-13T01:03:08.810Z,0.85
2019-03-13T01:03:51.023Z,1.12
2019-03-13T01:04:27.594Z,1.82
2019-03-13T01:05:03.815Z,0.88
2019-03-13T01:05:42.941Z,1.10
2019-03-13T01:06:22.007Z,0.98
2019-03-13T01:06:58.435Z,1.00
2019-03-13T01:07:33.340Z,1.25
2019-03-13T01:08:07.827Z,1.32
2019-03-13T01:08:42.325Z,1.30
2019-03-13T01:09:16.829Z,1.02
2019-03-13T01:09:51.362Z,1.12
2019-03-13T01:10:26.008Z,0.95
2019-03-13T01:11:00.601Z,1.07
2019-03-13T01:11:35.096Z,0.90
2019-03-13T01:12:09.671Z,1.15
2019-03-13T01:12:44.276Z,1.20
2019-03-13T01:13:18.767Z,0.95
2019-03-13T01:13:53.268Z,0.95
2019-03-13T01:14:27.774Z,1.10
2019-03-13T01:15:02.351Z,1.10
2019-03-13T01:15:37.024Z,0.70
2019-03-13T01:16:11.521Z,1.27
2019-03-13T01:16:46.029Z,0.72
2019-03-13T01:17:20.530Z,1.15
2019-03-13T01:17:55.100Z,1.20
2019-03-13T01:18:29.622Z,1.25
2019-03-13T01:19:04.187Z,1.07
2019-03-13T01:19:38.682Z,1.20
2019-03-13T01:20:13.618Z,1.32
2019-03-13T01:20:48.109Z,1.57
2019-03-13T01:21:23.869Z,1.20
2019-03-13T01:21:58.359Z,1.37
2019-03-13T01:22:32.877Z,1.12
2019-03-13T01:23:07.515Z,0.95
2019-03-13T01:23:42.038Z,0.90
2019-03-13T01:24:16.566Z,0.80
2019-03-13T01:24:51.107Z,0.95
2019-03-13T01:25:25.670Z,1.10
2019-03-13T01:26:00.243Z,0.85
2019-03-13T01:26:35.696Z,0.95
2019-03-13T01:27:10.276Z,1.07
2019-03-13T01:27:44.773Z,1.20
2019-03-13T01:28:19.270Z,0.88
2019-03-13T01:28:53.805Z,0.72
2019-03-13T01:29:28.310Z,0.95
2019-03-13T01:30:02.829Z,1.20
2019-03-13T01:30:47.644Z,0.70
2019-03-13T01:31:23.795Z,1.05
2019-03-13T01:32:09.102Z,0.80
2019-03-13T01:32:45.225Z,0.72
2019-03-13T01:33:20.907Z,1.35
2019-03-13T01:33:57.112Z,1.30
2019-03-13T01:34:33.311Z,1.05
2019-03-13T01:35:15.327Z,1.37
2019-03-13T01:35:51.461Z,1.15
2019-03-13T01:36:26.038Z,0.90
2019-03-13T01:37:00.601Z,1.10
2019-03-13T01:37:35.101Z,0.90
2019-03-13T01:38:09.612Z,1.02
2019-03-13T01:38:44.183Z,0.80
2019-03-13T01:39:18.734Z,1.20
2019-03-13T01:39:53.238Z,0.90
2019-03-13T01:40:27.747Z,1.22
2019-03-13T01:41:02.249Z,0.90
2019-03-13T01:41:38.040Z,0.90
2019-03-13T01:42:12.565Z,1.00
2019-03-13T01:42:49.704Z,0.90
2019-03-13T01:43:24.800Z,0.90
2019-03-13T01:43:59.304Z,0.80
2019-03-13T01:44:33.833Z,0.95
2019-03-13T01:45:10.174Z,0.90
2019-03-13T01:45:45.086Z,1.00
2019-03-13T01:46:19.672Z,0.90
2019-03-13T01:46:55.368Z,1.10
2019-03-13T01:47:30.404Z,1.47
2019-03-13T01:48:04.908Z,0.80
2019-03-13T01:48:39.477Z,0.70
2019-03-13T01:49:13.980Z,1.00
2019-03-13T01:49:48.472Z,0.68
2019-03-13T01:50:22.973Z,0.78
2019-03-13T01:50:57.572Z,0.85
2019-03-13T01:51:32.083Z,0.93
2019-03-13T01:52:06.594Z,1.37
2019-03-13T01:52:41.228Z,0.60
2019-03-13T01:53:15.729Z,0.80
2019-03-13T01:53:50.244Z,0.93
2019-03-13T01:54:24.726Z,0.85
2019-03-13T01:54:59.227Z,1.30
2019-03-13T01:55:33.805Z,0.90
2019-03-13T01:56:08.309Z,0.80
2019-03-13T01:56:42.814Z,0.80
2019-03-13T01:57:17.360Z,0.98
2019-03-13T01:57:51.904Z,1.20
2019-03-13T01:58:26.746Z,1.00
2019-03-13T01:59:01.318Z,1.22
2019-03-13T01:59:35.939Z,1.10
2019-03-13T02:00:13.455Z,0.85
2019-03-13T02:00:48.032Z,1.10
2019-03-13T02:01:22.875Z,1.05
2019-03-13T02:01:57.392Z,0.93
2019-03-13T02:02:31.926Z,1.02
2019-03-13T02:03:06.480Z,1.10
2019-03-13T02:03:41.984Z,0.85
2019-03-13T02:04:16.494Z,0.80
2019-03-13T02:04:50.994Z,0.80
2019-03-13T02:05:25.498Z,1.02
2019-03-13T02:05:59.992Z,0.90
2019-03-13T02:06:34.509Z,1.20
2019-03-13T02:07:09.070Z,1.20
2019-03-13T02:07:43.575Z,0.98
2019-03-13T02:08:18.243Z,1.02
2019-03-13T02:08:52.831Z,1.95
2019-03-13T02:09:27.341Z,1.20
2019-03-13T02:10:01.837Z,1.27
2019-03-13T02:10:36.404Z,1.32
2019-03-13T02:11:10.916Z,1.70
2019-03-13T02:11:45.416Z,1.05
2019-03-13T02:12:20.119Z,1.35
2019-03-13T02:12:54.679Z,2.00
2019-03-13T02:13:29.175Z,1.87
2019-03-13T02:14:03.668Z,1.02
2019-03-13T02:14:38.163Z,1.00
2019-03-13T02:15:15.837Z,1.30
2019-03-13T02:15:51.276Z,1.30
2019-03-13T02:16:25.774Z,0.90
2019-03-13T02:17:00.295Z,1.27
2019-03-13T02:17:34.808Z,1.20
2019-03-13T02:18:09.314Z,1.10
2019-03-13T02:18:43.814Z,1.05
2019-03-13T02:19:18.381Z,1.10
2019-03-13T02:19:52.933Z,1.30
2019-03-13T02:20:27.442Z,0.90
2019-03-13T02:21:01.949Z,0.78
2019-03-13T02:21:36.519Z,0.98
2019-03-13T02:22:11.017Z,1.00
2019-03-13T02:22:45.527Z,0.80
2019-03-13T02:23:20.105Z,1.02
2019-03-13T02:23:54.603Z,1.00
2019-03-13T02:24:29.110Z,0.90
2019-03-13T02:25:05.613Z,1.57
2019-03-13T02:25:40.166Z,1.02
2019-03-13T02:26:14.730Z,0.93
2019-03-13T02:26:49.293Z,0.95
2019-03-13T02:27:23.799Z,0.82
2019-03-13T02:27:58.491Z,1.10
2019-03-13T02:28:33.016Z,1.05
2019-03-13T02:29:07.512Z,1.20
2019-03-13T02:29:42.012Z,1.00
2019-03-13T02:30:19.279Z,1.12
2019-03-13T02:30:53.857Z,0.80
2019-03-13T02:31:28.403Z,1.02
2019-03-13T02:32:03.006Z,1.25
2019-03-13T02:32:37.514Z,1.05
2019-03-13T02:33:12.094Z,1.20
2019-03-13T02:33:46.705Z,1.27
2019-03-13T02:34:21.277Z,1.32
2019-03-13T02:34:55.915Z,1.02
2019-03-13T02:35:30.500Z,1.00
2019-03-13T02:36:05.045Z,1.05
2019-03-13T02:36:39.624Z,0.93
2019-03-13T02:37:14.147Z,1.00
2019-03-13T02:37:48.639Z,1.60
2019-03-13T02:38:23.147Z,1.30
2019-03-13T02:38:57.782Z,1.15
2019-03-13T02:39:32.372Z,0.90
2019-03-13T02:40:14.961Z,1.17
2019-03-13T02:40:49.504Z,0.88
2019-03-13T02:41:24.108Z,1.15
2019-03-13T02:41:58.817Z,0.70
2019-03-13T02:42:33.453Z,0.80
2019-03-13T02:43:08.074Z,0.90
2019-03-13T02:43:42.586Z,0.65
2019-03-13T02:44:17.157Z,0.90
2019-03-13T02:44:51.668Z,1.52
2019-03-13T02:45:26.232Z,1.20
2019-03-13T02:46:00.830Z,0.90
2019-03-13T02:46:35.410Z,1.02
2019-03-13T02:47:09.984Z,0.88
2019-03-13T02:47:44.554Z,0.80
2019-03-13T02:48:19.120Z,1.00
2019-03-13T02:48:53.731Z,0.70
2019-03-13T02:49:28.684Z,1.07
2019-03-13T02:50:04.217Z,0.90
2019-03-13T02:50:38.843Z,1.20
2019-03-13T02:51:13.413Z,0.90
2019-03-13T02:51:48.080Z,1.20
2019-03-13T02:52:22.646Z,1.07
2019-03-13T02:52:57.217Z,1.02
2019-03-13T02:53:31.791Z,0.78
2019-03-13T02:54:06.389Z,1.00
2019-03-13T02:54:41.003Z,1.17
2019-03-13T02:55:15.580Z,1.20
2019-03-13T02:55:50.145Z,0.90
2019-03-13T02:56:24.642Z,1.12
2019-03-13T02:56:59.195Z,0.90
2019-03-13T02:57:33.681Z,1.05
2019-03-13T02:58:08.163Z,0.72
2019-03-13T02:58:42.647Z,1.02
2019-03-13T02:59:17.144Z,1.22
2019-03-13T02:59:51.639Z,1.20
2019-03-13T03:00:30.577Z,1.20
2019-03-13T03:01:15.694Z,1.12
2019-03-13T03:01:51.821Z,1.32
2019-03-13T03:02:27.948Z,0.90
2019-03-13T03:03:09.867Z,1.40
2019-03-13T03:03:46.361Z,0.60
2019-03-13T03:04:20.930Z,1.00
2019-03-13T03:04:56.338Z,1.12
2019-03-13T03:05:30.908Z,1.07
2019-03-13T03:06:05.503Z,1.10
2019-03-13T03:06:40.344Z,0.93
2019-03-13T03:07:14.926Z,1.20
2019-03-13T03:07:49.487Z,1.22
2019-03-13T03:08:24.040Z,1.10
2019-03-13T03:08:59.010Z,0.65
2019-03-13T03:09:33.577Z,1.65
2019-03-13T03:10:11.486Z,1.02
2019-03-13T03:10:45.986Z,0.82
2019-03-13T03:11:20.660Z,1.20
2019-03-13T03:11:55.244Z,1.00
2019-03-13T03:12:30.711Z,1.12
2019-03-13T03:13:05.276Z,0.85
2019-03-13T03:13:39.856Z,1.17
2019-03-13T03:14:14.424Z,1.55
2019-03-13T03:15:02.731Z,1.42
2019-03-13T03:15:37.223Z,1.02
2019-03-13T03:16:11.716Z,1.15
2019-03-13T03:16:46.215Z,1.30
2019-03-13T03:17:20.802Z,0.90
2019-03-13T03:17:55.301Z,0.90
2019-03-13T03:18:29.793Z,1.40
2019-03-13T03:19:04.314Z,0.98
2019-03-13T03:19:38.887Z,0.75
2019-03-13T03:20:15.528Z,0.60
2019-03-13T03:20:50.082Z,0.80
2019-03-13T03:21:24.673Z,0.70
2019-03-13T03:21:59.265Z,0.50
2019-03-13T03:22:33.836Z,0.70
2019-03-13T03:23:08.420Z,0.50
2019-03-13T03:23:45.135Z,0.65
2019-03-13T03:24:19.127Z,0.55
2019-03-13T03:24:53.704Z,0.50
2019-03-13T03:25:28.274Z,0.50
2019-03-13T03:26:02.839Z,0.40
2019-03-13T03:26:37.408Z,0.40
2019-03-13T03:27:11.912Z,0.80
2019-03-13T03:27:46.474Z,0.50
2019-03-13T03:28:20.965Z,0.50
2019-03-13T03:28:55.565Z,0.40
2019-03-13T03:29:30.126Z,0.65
2019-03-13T03:30:07.690Z,0.60
2019-03-13T03:30:42.176Z,0.60
2019-03-13T03:31:16.747Z,0.53
2019-03-13T03:31:51.402Z,0.50
2019-03-13T03:32:26.000Z,0.65
2019-03-13T03:33:00.599Z,0.50
2019-03-13T03:33:35.156Z,0.40
2019-03-13T03:34:10.030Z,0.57
2019-03-13T03:34:44.629Z,0.40
2019-03-13T03:35:19.371Z,0.82
2019-03-13T03:35:54.270Z,0.50
2019-03-13T03:36:29.527Z,0.57
2019-03-13T03:37:04.104Z,0.40
2019-03-13T03:37:38.661Z,0.62
2019-03-13T03:38:13.256Z,0.70
2019-03-13T03:38:47.832Z,0.45
2019-03-13T03:39:22.326Z,0.40
2019-03-13T03:39:56.820Z,0.30
2019-03-13T03:40:31.350Z,0.50
2019-03-13T03:41:05.990Z,0.70
2019-03-13T03:41:40.564Z,0.30
2019-03-13T03:42:15.124Z,0.60
2019-03-13T03:42:49.631Z,0.80
2019-03-13T03:43:39.520Z,0.30
2019-03-13T03:44:00.391Z,0.40
2019-03-13T03:44:34.979Z,0.40
2019-03-13T03:45:10.824Z,0.40
2019-03-13T03:45:45.389Z,0.40
2019-03-13T03:46:19.986Z,0.30
2019-03-13T03:46:54.582Z,0.60
2019-03-13T03:47:29.075Z,0.40
2019-03-13T03:48:03.734Z,0.50
2019-03-13T03:48:38.263Z,0.50
2019-03-13T03:49:12.753Z,0.40
2019-03-13T03:49:47.245Z,0.30
2019-03-13T03:50:21.734Z,0.50
2019-03-13T03:50:56.222Z,0.30
2019-03-13T03:51:30.785Z,0.50
2019-03-13T03:52:05.301Z,0.40
2019-03-13T03:52:40.167Z,0.30
2019-03-13T03:53:14.845Z,0.40
2019-03-13T03:53:49.367Z,0.40
2019-03-13T03:54:23.933Z,0.40
2019-03-13T03:54:58.502Z,0.30
2019-03-13T03:55:33.032Z,0.30
2019-03-13T03:56:07.773Z,0.37
2019-03-13T03:56:42.379Z,0.35
2019-03-13T03:57:16.865Z,0.35
2019-03-13T03:57:51.537Z,0.40
2019-03-13T03:58:29.462Z,0.47
2019-03-13T03:59:02.569Z,0.50
2019-03-13T03:59:37.062Z,0.45
2019-03-13T04:00:16.312Z,0.40
2019-03-13T04:00:50.946Z,0.40
2019-03-13T04:01:25.446Z,0.37
2019-03-13T04:02:00.025Z,0.30
2019-03-13T04:02:34.846Z,0.50
2019-03-13T04:03:09.478Z,0.30
2019-03-13T04:03:44.028Z,0.47
2019-03-13T04:04:18.532Z,0.30
2019-03-13T04:04:53.456Z,0.30
2019-03-13T04:05:28.197Z,0.30
2019-03-13T04:06:07.836Z,0.37
2019-03-13T04:06:42.364Z,0.40
2019-03-13T04:07:16.996Z,0.40
2019-03-13T04:07:51.513Z,0.40
2019-03-13T04:08:26.018Z,0.40
2019-03-13T04:09:00.624Z,0.37
2019-03-13T04:09:35.202Z,0.30
2019-03-13T04:10:16.368Z,0.30
2019-03-13T04:10:51.097Z,0.30
2019-03-13T04:11:26.012Z,0.33
2019-03-13T04:12:00.768Z,0.30
2019-03-13T04:12:35.317Z,0.30
2019-03-13T04:13:09.813Z,0.30
2019-03-13T04:13:45.199Z,0.30
2019-03-13T04:14:19.979Z,0.42
2019-03-13T04:14:54.482Z,0.30
2019-03-13T04:15:29.066Z,0.35
2019-03-13T04:16:03.572Z,0.50
2019-03-13T04:16:38.060Z,0.30
2019-03-13T04:17:12.570Z,0.30
2019-03-13T04:17:47.234Z,0.30
2019-03-13T04:18:21.806Z,0.30
2019-03-13T04:18:56.284Z,0.40
2019-03-13T04:19:31.073Z,0.37
2019-03-13T04:20:15.765Z,0.40
2019-03-13T04:20:50.272Z,0.45
2019-03-13T04:21:25.221Z,0.33
2019-03-13T04:21:59.801Z,0.30
2019-03-13T04:22:34.476Z,0.28
2019-03-13T04:23:09.358Z,0.30
2019-03-13T04:23:43.940Z,0.30
2019-03-13T04:24:18.519Z,0.42
2019-03-13T04:24:53.541Z,0.30
2019-03-13T04:25:31.926Z,0.30
2019-03-13T04:26:06.663Z,0.30
2019-03-13T04:26:42.898Z,0.30
2019-03-13T04:27:17.485Z,0.30
2019-03-13T04:27:52.047Z,0.40
2019-03-13T04:28:26.622Z,0.40
2019-03-13T04:29:01.225Z,0.30
2019-03-13T04:29:35.789Z,0.30
2019-03-13T04:30:12.128Z,0.23
2019-03-13T04:30:46.629Z,0.30
2019-03-13T04:31:21.229Z,0.30
2019-03-13T04:31:55.733Z,0.20
2019-03-13T04:32:30.292Z,0.30
2019-03-13T04:33:04.865Z,0.20
2019-03-13T04:33:39.353Z,0.28
2019-03-13T04:34:13.846Z,0.35
2019-03-13T04:34:48.397Z,0.40
2019-03-13T04:35:23.018Z,0.40
2019-03-13T04:35:57.534Z,0.20
2019-03-13T04:36:32.043Z,0.30
2019-03-13T04:37:06.560Z,0.30
2019-03-13T04:37:41.121Z,0.40
2019-03-13T04:38:15.644Z,0.40
2019-03-13T04:38:50.166Z,0.30
2019-03-13T04:39:24.751Z,0.30
2019-03-13T04:39:59.248Z,0.30
2019-03-13T04:40:33.736Z,0.30
2019-03-13T04:41:08.299Z,0.30
2019-03-13T04:41:42.802Z,0.30
2019-03-13T04:42:17.301Z,0.20
2019-03-13T04:42:52.181Z,0.30
2019-03-13T04:43:26.694Z,0.30
2019-03-13T04:44:01.190Z,0.30
2019-03-13T04:44:35.682Z,0.20
2019-03-13T04:45:11.465Z,0.20
2019-03-13T04:45:46.032Z,0.30
2019-03-13T04:46:20.646Z,0.30
2019-03-13T04:46:55.230Z,0.30
2019-03-13T04:47:29.810Z,0.47
2019-03-13T04:48:04.551Z,0.30
2019-03-13T04:48:39.082Z,0.30
2019-03-13T04:49:13.684Z,0.30
2019-03-13T04:49:48.194Z,0.30
2019-03-13T04:50:22.693Z,0.30
2019-03-13T04:51:00.081Z,0.20
2019-03-13T04:51:34.646Z,0.30
2019-03-13T04:52:09.133Z,0.20
2019-03-13T04:52:43.873Z,0.20
2019-03-13T04:53:18.403Z,0.30
2019-03-13T04:53:53.033Z,0.20
2019-03-13T04:54:27.561Z,0.30
2019-03-13T04:55:02.336Z,0.30
2019-03-13T04:55:36.897Z,0.40
2019-03-13T04:56:11.393Z,0.30
2019-03-13T04:56:51.674Z,0.30
2019-03-13T04:57:26.241Z,0.30
2019-03-13T04:58:00.755Z,0.30
2019-03-13T04:58:35.429Z,0.30
2019-03-13T04:59:09.939Z,0.47
2019-03-13T04:59:44.435Z,0.30
2019-03-13T05:00:20.190Z,0.30
2019-03-13T05:00:54.752Z,0.30
2019-03-13T05:01:29.239Z,0.50
2019-03-13T05:02:03.724Z,0.40
2019-03-13T05:02:38.225Z,0.30
2019-03-13T05:03:12.845Z,0.42
2019-03-13T05:03:47.427Z,0.30
2019-03-13T05:04:21.997Z,0.30
2019-03-13T05:04:56.968Z,0.30
2019-03-13T05:05:37.490Z,0.37
2019-03-13T05:06:15.139Z,0.30
2019-03-13T05:06:49.672Z,0.50
2019-03-13T05:07:24.274Z,0.40
2019-03-13T05:07:59.001Z,0.20
2019-03-13T05:08:44.908Z,0.30
2019-03-13T05:09:12.722Z,0.30
2019-03-13T05:09:47.293Z,0.30
2019-03-13T05:10:21.810Z,0.40
2019-03-13T05:10:56.450Z,0.30
2019-03-13T05:11:31.008Z,0.35
2019-03-13T05:12:05.530Z,0.30
2019-03-13T05:12:40.081Z,0.40
2019-03-13T05:13:14.657Z,0.40
2019-03-13T05:13:49.247Z,0.30
2019-03-13T05:14:23.833Z,0.40
2019-03-13T05:14:58.350Z,0.30
2019-03-13T05:15:32.880Z,0.30
2019-03-13T05:16:07.446Z,0.33
2019-03-13T05:16:41.932Z,0.37
2019-03-13T05:17:16.432Z,0.40
2019-03-13T05:17:50.953Z,0.40
2019-03-13T05:18:25.488Z,0.30
2019-03-13T05:18:59.991Z,0.30
2019-03-13T05:19:34.476Z,0.30
2019-03-13T05:20:09.117Z,0.37
2019-03-13T05:20:45.429Z,0.30
2019-03-13T05:21:19.990Z,0.30
2019-03-13T05:21:54.481Z,0.30
2019-03-13T05:22:29.194Z,0.30
2019-03-13T05:23:03.684Z,0.30
2019-03-13T05:23:38.299Z,0.33
2019-03-13T05:24:12.934Z,0.30
2019-03-13T05:24:47.438Z,0.50
2019-03-13T05:25:21.940Z,0.28
2019-03-13T05:25:56.439Z,0.33
2019-03-13T05:26:30.963Z,0.35
2019-03-13T05:27:05.540Z,0.37
2019-03-13T05:27:40.133Z,0.33
2019-03-13T05:28:14.697Z,0.70
2019-03-13T05:28:49.244Z,0.40
2019-03-13T05:29:23.764Z,0.30
2019-03-13T05:29:58.274Z,0.30
2019-03-13T05:30:32.766Z,0.30
2019-03-13T05:31:07.271Z,0.33
2019-03-13T05:31:41.829Z,0.20
2019-03-13T05:32:16.351Z,0.30
2019-03-13T05:32:50.912Z,0.33
2019-03-13T05:33:25.465Z,0.30
2019-03-13T05:33:59.973Z,0.35
2019-03-13T05:34:34.537Z,0.40
2019-03-13T05:35:09.190Z,0.30
2019-03-13T05:35:43.757Z,0.30
2019-03-13T05:36:18.264Z,0.30
2019-03-13T05:36:52.823Z,0.33
2019-03-13T05:37:27.320Z,0.30
2019-03-13T05:38:01.922Z,0.30
2019-03-13T05:38:36.490Z,0.50
2019-03-13T05:39:10.985Z,0.70
2019-03-13T05:39:45.507Z,0.40
2019-03-13T05:40:20.343Z,0.40
2019-03-13T05:40:54.930Z,0.30
2019-03-13T05:41:29.456Z,0.30
2019-03-13T05:42:04.019Z,0.30
2019-03-13T05:42:38.511Z,0.40
2019-03-13T05:43:13.076Z,0.40
2019-03-13T05:43:47.593Z,0.42
2019-03-13T05:44:22.094Z,0.40
2019-03-13T05:44:56.601Z,0.30
2019-03-13T05:45:31.101Z,0.50
2019-03-13T05:46:05.610Z,0.40
2019-03-13T05:46:40.176Z,0.30
2019-03-13T05:47:14.666Z,0.40
2019-03-13T05:47:49.181Z,0.60
2019-03-13T05:48:23.682Z,0.40
2019-03-13T05:48:58.209Z,0.30
2019-03-13T05:49:32.712Z,0.40
2019-03-13T05:50:10.008Z,0.45
2019-03-13T05:50:44.575Z,0.30
2019-03-13T05:51:19.085Z,0.33
2019-03-13T05:51:53.592Z,0.50
2019-03-13T05:52:28.147Z,0.50
2019-03-13T05:53:02.637Z,0.40
2019-03-13T05:53:38.091Z,0.40
2019-03-13T05:54:12.596Z,0.45
2019-03-13T05:54:47.117Z,0.33
2019-03-13T05:55:21.708Z,0.42
2019-03-13T05:55:56.370Z,0.30
2019-03-13T05:56:30.860Z,1.00
2019-03-13T05:57:05.348Z,0.40
2019-03-13T05:57:39.857Z,0.40
2019-03-13T05:58:14.646Z,0.60
2019-03-13T05:58:49.155Z,0.30
2019-03-13T05:59:23.697Z,0.47
2019-03-13T05:59:58.843Z,0.40
2019-03-13T06:00:33.415Z,0.45
2019-03-13T06:01:07.920Z,0.50
2019-03-13T06:01:42.411Z,0.72
2019-03-13T06:02:16.976Z,0.60
2019-03-13T06:02:51.520Z,0.50
2019-03-13T06:03:26.115Z,0.47
2019-03-13T06:04:00.691Z,0.40
2019-03-13T06:04:35.249Z,0.50
2019-03-13T06:05:10.372Z,0.50
2019-03-13T06:05:44.968Z,0.68
2019-03-13T06:06:19.494Z,0.60
2019-03-13T06:06:53.979Z,0.60
2019-03-13T06:07:28.460Z,0.60
2019-03-13T06:08:03.238Z,0.45
2019-03-13T06:08:37.893Z,0.90
2019-03-13T06:09:12.458Z,0.60
2019-03-13T06:09:47.052Z,0.60
2019-03-13T06:10:21.617Z,0.50
2019-03-13T06:10:56.122Z,0.60
2019-03-13T06:11:30.689Z,0.55
2019-03-13T06:12:05.202Z,0.60
2019-03-13T06:12:39.958Z,0.60
2019-03-13T06:13:14.458Z,0.50
2019-03-13T06:13:48.970Z,0.40
2019-03-13T06:14:23.478Z,0.47
2019-03-13T06:14:57.989Z,0.60
2019-03-13T06:15:32.500Z,0.50
2019-03-13T06:16:07.001Z,0.57
2019-03-13T06:16:41.578Z,0.50
2019-03-13T06:17:16.173Z,0.50
2019-03-13T06:17:50.769Z,0.53
2019-03-13T06:18:25.319Z,0.50
2019-03-13T06:18:59.849Z,0.50
2019-03-13T06:19:34.403Z,1.07
2019-03-13T06:20:12.045Z,0.50
2019-03-13T06:20:46.552Z,0.80
2019-03-13T06:21:21.115Z,0.50
2019-03-13T06:21:55.608Z,0.50
2019-03-13T06:22:30.173Z,0.55
2019-03-13T06:23:04.759Z,0.53
2019-03-13T06:23:39.277Z,0.68
2019-03-13T06:24:13.804Z,0.70
2019-03-13T06:24:48.374Z,0.53
2019-03-13T06:25:22.963Z,0.70
2019-03-13T06:25:57.451Z,0.55
2019-03-13T06:26:38.930Z,0.47
2019-03-13T06:27:13.511Z,0.50
2019-03-13T06:27:48.035Z,0.65
2019-03-13T06:28:22.603Z,0.60
2019-03-13T06:28:57.107Z,0.40
2019-03-13T06:29:32.038Z,0.72
2019-03-13T06:30:12.210Z,0.45
2019-03-13T06:30:46.779Z,0.53
2019-03-13T06:31:21.356Z,0.72
2019-03-13T06:31:55.861Z,0.50
2019-03-13T06:32:30.769Z,0.60
2019-03-13T06:33:05.278Z,0.60
2019-03-13T06:33:39.777Z,0.60
2019-03-13T06:34:14.302Z,0.55
2019-03-13T06:34:48.821Z,0.50
2019-03-13T06:35:24.042Z,0.80
2019-03-13T06:35:58.793Z,1.55
2019-03-13T06:36:33.296Z,0.65
2019-03-13T06:37:07.782Z,0.60
2019-03-13T06:37:42.567Z,0.50
2019-03-13T06:38:17.066Z,0.70
2019-03-13T06:38:51.645Z,0.53
2019-03-13T06:39:26.219Z,0.40
2019-03-13T06:40:00.780Z,0.50
2019-03-13T06:40:35.286Z,0.50
2019-03-13T06:41:09.863Z,0.50
2019-03-13T06:41:44.489Z,0.50
2019-03-13T06:42:19.102Z,0.60
2019-03-13T06:42:53.599Z,0.60
2019-03-13T06:43:28.417Z,0.50
2019-03-13T06:44:03.000Z,0.70
2019-03-13T06:44:37.524Z,0.80
2019-03-13T06:45:15.108Z,0.78
2019-03-13T06:45:49.897Z,0.75
2019-03-13T06:46:24.385Z,0.70
2019-03-13T06:46:58.902Z,0.80
2019-03-13T06:47:33.729Z,0.62
2019-03-13T06:48:08.411Z,0.80
2019-03-13T06:48:43.010Z,1.10
2019-03-13T06:49:17.851Z,0.65
2019-03-13T06:49:52.422Z,1.00
2019-03-13T06:50:26.928Z,0.80
2019-03-13T06:51:01.484Z,0.65
2019-03-13T06:51:35.978Z,0.62
2019-03-13T06:52:10.536Z,0.85
2019-03-13T06:52:45.048Z,0.70
2019-03-13T06:53:19.609Z,1.00
2019-03-13T06:53:54.126Z,1.25
2019-03-13T06:54:28.674Z,0.80
2019-03-13T06:55:03.529Z,0.70
2019-03-13T06:55:38.023Z,1.30
2019-03-13T06:56:12.580Z,1.10
2019-03-13T06:56:47.081Z,0.75
2019-03-13T06:57:21.556Z,0.70
2019-03-13T06:57:56.057Z,1.00
2019-03-13T06:58:32.293Z,0.93
2019-03-13T06:59:08.476Z,1.00
2019-03-13T07:00:00.394Z,2.67
2019-03-13T07:00:39.546Z,1.25
2019-03-13T07:01:33.713Z,1.05
2019-03-13T07:02:18.700Z,0.68
2019-03-13T07:03:00.669Z,0.80
2019-03-13T07:03:39.541Z,1.35
2019-03-13T07:04:21.034Z,1.30
2019-03-13T07:04:56.093Z,1.12
2019-03-13T07:05:32.299Z,1.10
2019-03-13T07:06:08.437Z,1.00
2019-03-13T07:06:47.213Z,0.80
2019-03-13T07:07:38.259Z,0.80
2019-03-13T07:08:23.334Z,0.80
2019-03-13T07:09:11.293Z,1.30
2019-03-13T07:09:47.451Z,1.00
2019-03-13T07:10:26.220Z,1.37
2019-03-13T07:11:11.318Z,0.85
2019-03-13T07:11:50.391Z,0.88
2019-03-13T07:12:32.309Z,0.70
2019-03-13T07:13:14.696Z,0.90
2019-03-13T07:14:03.117Z,0.88
2019-03-13T07:14:48.488Z,0.70
2019-03-13T07:15:24.660Z,1.67
2019-03-13T07:16:03.229Z,1.55
2019-03-13T07:16:48.382Z,1.20
2019-03-13T07:17:33.285Z,1.00
2019-03-13T07:18:09.473Z,1.40
2019-03-13T07:18:45.630Z,1.35
2019-03-13T07:19:38.004Z,1.42
2019-03-13T07:20:14.230Z,0.70
2019-03-13T07:20:59.160Z,0.93
2019-03-13T07:21:38.234Z,1.20
2019-03-13T07:22:20.547Z,0.98
2019-03-13T07:23:02.266Z,1.10
2019-03-13T07:23:44.504Z,0.78
2019-03-13T07:24:37.294Z,0.90
2019-03-13T07:25:28.480Z,0.75
2019-03-13T07:26:10.604Z,0.90
2019-03-13T07:26:55.925Z,0.93
2019-03-13T07:27:44.256Z,1.00
2019-03-13T07:28:22.832Z,1.10
2019-03-13T07:29:15.434Z,0.80
2019-03-13T07:29:57.786Z,0.90
2019-03-13T07:30:49.203Z,1.10
2019-03-13T07:31:25.750Z,0.90
2019-03-13T07:32:01.902Z,0.70
2019-03-13T07:32:56.719Z,0.95
2019-03-13T07:33:44.967Z,1.30
2019-03-13T07:34:39.048Z,0.65
2019-03-13T07:35:15.187Z,0.80
2019-03-13T07:35:57.184Z,0.70
2019-03-13T07:36:51.361Z,0.70
2019-03-13T07:37:27.523Z,1.00
2019-03-13T07:38:19.691Z,1.12
2019-03-13T07:38:55.826Z,2.05
2019-03-13T07:39:31.985Z,0.90
2019-03-13T07:40:10.829Z,0.70
2019-03-13T07:40:46.982Z,1.07
2019-03-13T07:41:26.233Z,1.10
2019-03-13T07:42:02.394Z,1.00
2019-03-13T07:42:47.706Z,1.07
2019-03-13T07:43:27.094Z,1.00
2019-03-13T07:44:08.773Z,1.05
2019-03-13T07:44:56.958Z,1.20
2019-03-13T07:45:51.225Z,1.00
2019-03-13T07:46:27.707Z,0.70
2019-03-13T07:47:06.824Z,0.90
2019-03-13T07:47:54.986Z,0.72
2019-03-13T07:48:36.861Z,0.70
2019-03-13T07:49:13.075Z,0.60
2019-03-13T07:50:01.579Z,0.80
2019-03-13T07:50:43.579Z,0.70
2019-03-13T07:51:28.455Z,0.95
2019-03-13T07:52:20.700Z,0.75
2019-03-13T07:52:56.832Z,0.70
2019-03-13T07:53:32.965Z,0.82
2019-03-13T07:54:12.093Z,0.90
2019-03-13T07:54:48.250Z,0.95
2019-03-13T07:55:24.693Z,0.60
2019-03-13T07:56:00.842Z,0.72